sensor_id;sensor_type;location;lat;lon;timestamp;temperature;humidity
9305;DHT22;4690;52.422;13.486;2023-05-29T00:05:40;14.60;99.90
9305;DHT22;4690;52.422;13.486;2023-05-29T00:08:06;14.60;99.90
9305;DHT22;4690;52.422;13.486;2023-05-29T00:10:32;14.50;99.90
9305;DHT22;4690;52.422;13.486;2023-05-29T00:12:58;14.50;99.90
9305;DHT22;4690;52.422;13.486;2023-05-29T00:15:26;14.40;99.90
9305;DHT22;4690;52.422;13.486;2023-05-29T00:17:53;14.40;99.90
9305;DHT22;4690;52.422;13.486;2023-05-29T00:20:19;14.30;99.90
9305;DHT22;4690;52.422;13.486;2023-05-29T00:22:45;14.20;99.90
9305;DHT22;4690;52.422;13.486;2023-05-29T00:25:10;14.20;99.90
9305;DHT22;4690;52.422;13.486;2023-05-29T00:27:36;14.10;99.90
9305;DHT22;4690;52.422;13.486;2023-05-29T00:30:03;14.20;99.90
9305;DHT22;4690;52.422;13.486;2023-05-29T00:32:33;14.10;99.90
9305;DHT22;4690;52.422;13.486;2023-05-29T00:34:58;14.00;99.90
9305;DHT22;4690;52.422;13.486;2023-05-29T00:37:24;14.00;99.90
9305;DHT22;4690;52.422;13.486;2023-05-29T00:39:51;13.90;99.90
9305;DHT22;4690;52.422;13.486;2023-05-29T00:42:17;13.90;99.90
9305;DHT22;4690;52.422;13.486;2023-05-29T00:44:43;13.80;99.90
9305;DHT22;4690;52.422;13.486;2023-05-29T00:47:10;13.80;99.90
9305;DHT22;4690;52.422;13.486;2023-05-29T00:49:36;13.80;99.90
9305;DHT22;4690;52.422;13.486;2023-05-29T00:52:03;13.70;99.90
9305;DHT22;4690;52.422;13.486;2023-05-29T00:54:32;13.70;99.90
9305;DHT22;4690;52.422;13.486;2023-05-29T00:56:59;13.60;99.90
9305;DHT22;4690;52.422;13.486;2023-05-29T00:59:29;13.60;99.90
9305;DHT22;4690;52.422;13.486;2023-05-29T01:01:58;13.50;99.90
9305;DHT22;4690;52.422;13.486;2023-05-29T01:04:26;13.50;99.90
9305;DHT22;4690;52.422;13.486;2023-05-29T01:06:52;13.50;99.90
9305;DHT22;4690;52.422;13.486;2023-05-29T01:09:18;13.40;99.90
9305;DHT22;4690;52.422;13.486;2023-05-29T01:18:51;13.30;99.90
9305;DHT22;4690;52.422;13.486;2023-05-29T01:24:52;13.20;99.90
9305;DHT22;4690;52.422;13.486;2023-05-29T01:27:29;13.10;99.90
9305;DHT22;4690;52.422;13.486;2023-05-29T01:29:58;13.10;99.90
9305;DHT22;4690;52.422;13.486;2023-05-29T01:32:26;13.00;99.90
9305;DHT22;4690;52.422;13.486;2023-05-29T01:34:53;13.00;99.90
9305;DHT22;4690;52.422;13.486;2023-05-29T01:37:19;13.00;99.90
9305;DHT22;4690;52.422;13.486;2023-05-29T01:39:44;12.90;99.90
9305;DHT22;4690;52.422;13.486;2023-05-29T01:42:10;12.80;99.90
9305;DHT22;4690;52.422;13.486;2023-05-29T01:44:38;12.80;99.90
9305;DHT22;4690;52.422;13.486;2023-05-29T01:47:04;12.80;99.90
9305;DHT22;4690;52.422;13.486;2023-05-29T01:49:31;12.70;99.90
9305;DHT22;4690;52.422;13.486;2023-05-29T01:51:58;12.70;99.90
9305;DHT22;4690;52.422;13.486;2023-05-29T01:54:24;12.70;99.90
9305;DHT22;4690;52.422;13.486;2023-05-29T01:56:51;12.60;99.90
9305;DHT22;4690;52.422;13.486;2023-05-29T01:59:17;12.60;99.90
9305;DHT22;4690;52.422;13.486;2023-05-29T02:01:44;12.50;99.90
9305;DHT22;4690;52.422;13.486;2023-05-29T02:04:10;12.50;99.90
9305;DHT22;4690;52.422;13.486;2023-05-29T02:06:35;12.50;99.90
9305;DHT22;4690;52.422;13.486;2023-05-29T02:09:02;12.40;99.90
9305;DHT22;4690;52.422;13.486;2023-05-29T02:11:28;12.40;99.90
9305;DHT22;4690;52.422;13.486;2023-05-29T02:13:54;12.30;99.90
9305;DHT22;4690;52.422;13.486;2023-05-29T02:16:19;12.30;99.90
9305;DHT22;4690;52.422;13.486;2023-05-29T02:18:46;12.20;99.90
9305;DHT22;4690;52.422;13.486;2023-05-29T02:21:13;12.20;99.90
9305;DHT22;4690;52.422;13.486;2023-05-29T02:23:39;12.20;99.90
9305;DHT22;4690;52.422;13.486;2023-05-29T02:26:05;12.10;99.90
9305;DHT22;4690;52.422;13.486;2023-05-29T02:28:30;12.10;99.90
9305;DHT22;4690;52.422;13.486;2023-05-29T02:30:56;12.10;99.90
9305;DHT22;4690;52.422;13.486;2023-05-29T02:33:22;12.00;99.90
9305;DHT22;4690;52.422;13.486;2023-05-29T02:35:48;12.00;99.90
9305;DHT22;4690;52.422;13.486;2023-05-29T02:38:14;12.00;99.90
9305;DHT22;4690;52.422;13.486;2023-05-29T02:40:40;12.00;99.90
9305;DHT22;4690;52.422;13.486;2023-05-29T02:43:07;12.00;99.90
9305;DHT22;4690;52.422;13.486;2023-05-29T02:45:34;12.00;99.90
9305;DHT22;4690;52.422;13.486;2023-05-29T02:48:00;12.00;99.90
9305;DHT22;4690;52.422;13.486;2023-05-29T02:50:26;12.00;99.90
9305;DHT22;4690;52.422;13.486;2023-05-29T02:52:53;11.90;99.90
9305;DHT22;4690;52.422;13.486;2023-05-29T02:55:19;11.90;99.90
9305;DHT22;4690;52.422;13.486;2023-05-29T02:57:45;11.90;99.90
9305;DHT22;4690;52.422;13.486;2023-05-29T03:00:11;11.90;99.90
9305;DHT22;4690;52.422;13.486;2023-05-29T03:02:37;11.90;99.90
9305;DHT22;4690;52.422;13.486;2023-05-29T03:05:03;11.90;99.90
9305;DHT22;4690;52.422;13.486;2023-05-29T03:07:29;11.90;99.90
9305;DHT22;4690;52.422;13.486;2023-05-29T03:09:55;11.90;99.90
9305;DHT22;4690;52.422;13.486;2023-05-29T03:12:22;11.90;99.90
9305;DHT22;4690;52.422;13.486;2023-05-29T03:14:48;11.90;99.90
9305;DHT22;4690;52.422;13.486;2023-05-29T03:17:14;11.90;99.90
9305;DHT22;4690;52.422;13.486;2023-05-29T03:19:40;11.90;99.90
9305;DHT22;4690;52.422;13.486;2023-05-29T03:22:06;11.90;99.90
9305;DHT22;4690;52.422;13.486;2023-05-29T03:24:32;11.90;99.90
9305;DHT22;4690;52.422;13.486;2023-05-29T03:27:00;11.90;99.90
9305;DHT22;4690;52.422;13.486;2023-05-29T03:29:26;11.90;99.90
9305;DHT22;4690;52.422;13.486;2023-05-29T03:31:51;11.80;99.90
9305;DHT22;4690;52.422;13.486;2023-05-29T03:34:17;11.90;99.90
9305;DHT22;4690;52.422;13.486;2023-05-29T03:36:43;11.80;99.90
9305;DHT22;4690;52.422;13.486;2023-05-29T03:39:08;11.90;99.90
9305;DHT22;4690;52.422;13.486;2023-05-29T03:41:34;11.90;99.90
9305;DHT22;4690;52.422;13.486;2023-05-29T03:44:00;11.90;99.90
9305;DHT22;4690;52.422;13.486;2023-05-29T03:46:26;11.90;99.90
9305;DHT22;4690;52.422;13.486;2023-05-29T03:48:52;11.90;99.90
9305;DHT22;4690;52.422;13.486;2023-05-29T03:51:18;11.90;99.90
9305;DHT22;4690;52.422;13.486;2023-05-29T03:53:44;12.00;99.90
9305;DHT22;4690;52.422;13.486;2023-05-29T03:56:10;12.00;99.90
9305;DHT22;4690;52.422;13.486;2023-05-29T03:58:36;12.10;99.90
9305;DHT22;4690;52.422;13.486;2023-05-29T04:01:04;12.10;99.90
9305;DHT22;4690;52.422;13.486;2023-05-29T04:03:30;12.10;99.90
9305;DHT22;4690;52.422;13.486;2023-05-29T04:05:56;12.10;99.90
9305;DHT22;4690;52.422;13.486;2023-05-29T04:08:22;12.20;99.90
9305;DHT22;4690;52.422;13.486;2023-05-29T04:10:48;12.20;99.90
9305;DHT22;4690;52.422;13.486;2023-05-29T04:13:14;12.10;99.90
9305;DHT22;4690;52.422;13.486;2023-05-29T04:15:40;12.20;99.90
9305;DHT22;4690;52.422;13.486;2023-05-29T04:18:07;12.30;99.90
9305;DHT22;4690;52.422;13.486;2023-05-29T04:20:33;12.40;99.90
9305;DHT22;4690;52.422;13.486;2023-05-29T04:22:58;12.40;99.90
9305;DHT22;4690;52.422;13.486;2023-05-29T04:25:24;12.50;99.90
9305;DHT22;4690;52.422;13.486;2023-05-29T04:27:50;12.50;99.90
9305;DHT22;4690;52.422;13.486;2023-05-29T04:30:16;12.60;99.90
9305;DHT22;4690;52.422;13.486;2023-05-29T04:32:42;12.60;99.90
9305;DHT22;4690;52.422;13.486;2023-05-29T04:35:08;12.70;99.90
9305;DHT22;4690;52.422;13.486;2023-05-29T04:37:35;12.70;99.90
9305;DHT22;4690;52.422;13.486;2023-05-29T04:40:05;12.80;99.90
9305;DHT22;4690;52.422;13.486;2023-05-29T04:42:39;12.80;99.90
9305;DHT22;4690;52.422;13.486;2023-05-29T04:45:07;12.90;99.90
9305;DHT22;4690;52.422;13.486;2023-05-29T04:47:35;13.10;99.90
9305;DHT22;4690;52.422;13.486;2023-05-29T04:50:10;13.10;99.90
9305;DHT22;4690;52.422;13.486;2023-05-29T04:52:37;13.20;99.90
9305;DHT22;4690;52.422;13.486;2023-05-29T04:55:03;13.30;99.90
9305;DHT22;4690;52.422;13.486;2023-05-29T04:57:30;13.50;99.90
9305;DHT22;4690;52.422;13.486;2023-05-29T04:59:56;13.60;99.90
9305;DHT22;4690;52.422;13.486;2023-05-29T05:02:22;13.70;99.90
9305;DHT22;4690;52.422;13.486;2023-05-29T05:04:47;13.80;99.90
9305;DHT22;4690;52.422;13.486;2023-05-29T05:07:13;13.80;99.90
9305;DHT22;4690;52.422;13.486;2023-05-29T05:09:41;13.90;99.90
9305;DHT22;4690;52.422;13.486;2023-05-29T05:12:07;14.00;99.90
9305;DHT22;4690;52.422;13.486;2023-05-29T05:14:34;14.10;99.90
9305;DHT22;4690;52.422;13.486;2023-05-29T05:17:00;14.20;99.90
9305;DHT22;4690;52.422;13.486;2023-05-29T05:19:25;14.20;99.90
9305;DHT22;4690;52.422;13.486;2023-05-29T05:21:51;14.30;99.90
9305;DHT22;4690;52.422;13.486;2023-05-29T05:24:17;14.30;99.90
9305;DHT22;4690;52.422;13.486;2023-05-29T05:26:43;14.30;99.90
9305;DHT22;4690;52.422;13.486;2023-05-29T05:29:09;14.50;99.90
9305;DHT22;4690;52.422;13.486;2023-05-29T05:31:34;14.60;99.90
9305;DHT22;4690;52.422;13.486;2023-05-29T05:34:00;14.80;99.90
9305;DHT22;4690;52.422;13.486;2023-05-29T05:36:26;14.90;99.90
9305;DHT22;4690;52.422;13.486;2023-05-29T05:38:52;15.10;99.90
9305;DHT22;4690;52.422;13.486;2023-05-29T05:41:17;15.10;99.90
9305;DHT22;4690;52.422;13.486;2023-05-29T05:43:43;15.20;99.90
9305;DHT22;4690;52.422;13.486;2023-05-29T05:46:09;15.30;99.90
9305;DHT22;4690;52.422;13.486;2023-05-29T05:48:34;15.30;99.90
9305;DHT22;4690;52.422;13.486;2023-05-29T05:51:00;15.40;99.90
9305;DHT22;4690;52.422;13.486;2023-05-29T05:53:26;15.50;99.90
9305;DHT22;4690;52.422;13.486;2023-05-29T05:55:52;15.60;99.90
9305;DHT22;4690;52.422;13.486;2023-05-29T05:58:17;15.80;99.90
9305;DHT22;4690;52.422;13.486;2023-05-29T06:00:43;15.90;99.90
9305;DHT22;4690;52.422;13.486;2023-05-29T06:03:09;16.00;99.90
9305;DHT22;4690;52.422;13.486;2023-05-29T06:05:34;16.10;99.90
9305;DHT22;4690;52.422;13.486;2023-05-29T06:08:02;16.20;99.90
9305;DHT22;4690;52.422;13.486;2023-05-29T06:10:27;16.10;99.90
9305;DHT22;4690;52.422;13.486;2023-05-29T06:12:53;16.20;99.90
9305;DHT22;4690;52.422;13.486;2023-05-29T06:15:19;16.30;99.90
9305;DHT22;4690;52.422;13.486;2023-05-29T06:17:45;16.30;99.90
9305;DHT22;4690;52.422;13.486;2023-05-29T06:20:11;16.30;99.90
9305;DHT22;4690;52.422;13.486;2023-05-29T06:22:37;16.30;99.90
9305;DHT22;4690;52.422;13.486;2023-05-29T06:25:03;16.40;99.90
9305;DHT22;4690;52.422;13.486;2023-05-29T06:27:30;16.60;99.90
9305;DHT22;4690;52.422;13.486;2023-05-29T06:29:55;16.70;99.90
9305;DHT22;4690;52.422;13.486;2023-05-29T06:32:21;17.00;99.90
9305;DHT22;4690;52.422;13.486;2023-05-29T06:34:47;17.20;99.90
9305;DHT22;4690;52.422;13.486;2023-05-29T06:37:13;17.20;99.90
9305;DHT22;4690;52.422;13.486;2023-05-29T06:39:39;17.20;99.90
9305;DHT22;4690;52.422;13.486;2023-05-29T06:42:07;17.40;99.90
9305;DHT22;4690;52.422;13.486;2023-05-29T06:44:34;17.60;99.90
9305;DHT22;4690;52.422;13.486;2023-05-29T06:47:03;17.80;99.90
9305;DHT22;4690;52.422;13.486;2023-05-29T06:49:30;18.00;99.90
9305;DHT22;4690;52.422;13.486;2023-05-29T06:51:56;18.20;99.90
9305;DHT22;4690;52.422;13.486;2023-05-29T06:54:22;18.40;99.90
9305;DHT22;4690;52.422;13.486;2023-05-29T06:56:47;18.60;99.90
9305;DHT22;4690;52.422;13.486;2023-05-29T06:59:13;18.80;99.90
9305;DHT22;4690;52.422;13.486;2023-05-29T07:01:39;18.60;98.80
9305;DHT22;4690;52.422;13.486;2023-05-29T07:04:05;18.60;98.70
9305;DHT22;4690;52.422;13.486;2023-05-29T07:06:32;18.50;98.90
9305;DHT22;4690;52.422;13.486;2023-05-29T07:08:59;18.50;99.90
9305;DHT22;4690;52.422;13.486;2023-05-29T07:11:25;18.30;98.00
9305;DHT22;4690;52.422;13.486;2023-05-29T07:13:53;18.40;99.90
9305;DHT22;4690;52.422;13.486;2023-05-29T07:16:19;18.60;98.30
9305;DHT22;4690;52.422;13.486;2023-05-29T07:18:45;18.70;99.00
9305;DHT22;4690;52.422;13.486;2023-05-29T07:21:11;18.90;98.50
9305;DHT22;4690;52.422;13.486;2023-05-29T07:23:37;18.80;98.40
9305;DHT22;4690;52.422;13.486;2023-05-29T07:26:02;18.80;99.90
9305;DHT22;4690;52.422;13.486;2023-05-29T07:28:28;19.10;98.40
9305;DHT22;4690;52.422;13.486;2023-05-29T07:30:54;19.00;97.60
9305;DHT22;4690;52.422;13.486;2023-05-29T07:33:20;19.10;98.10
9305;DHT22;4690;52.422;13.486;2023-05-29T07:35:47;19.00;98.10
9305;DHT22;4690;52.422;13.486;2023-05-29T07:38:13;19.20;99.40
9305;DHT22;4690;52.422;13.486;2023-05-29T07:40:39;19.30;97.10
9305;DHT22;4690;52.422;13.486;2023-05-29T07:43:04;19.20;96.10
9305;DHT22;4690;52.422;13.486;2023-05-29T07:45:33;19.50;99.90
9305;DHT22;4690;52.422;13.486;2023-05-29T07:47:59;19.80;96.80
9305;DHT22;4690;52.422;13.486;2023-05-29T07:50:25;19.80;98.00
9305;DHT22;4690;52.422;13.486;2023-05-29T07:52:51;19.80;95.10
9305;DHT22;4690;52.422;13.486;2023-05-29T07:55:16;19.80;98.70
9305;DHT22;4690;52.422;13.486;2023-05-29T07:57:42;20.10;96.40
9305;DHT22;4690;52.422;13.486;2023-05-29T08:00:08;20.00;94.50
9305;DHT22;4690;52.422;13.486;2023-05-29T08:02:35;19.80;95.50
9305;DHT22;4690;52.422;13.486;2023-05-29T08:05:05;19.80;95.50
9305;DHT22;4690;52.422;13.486;2023-05-29T08:07:33;19.90;95.30
9305;DHT22;4690;52.422;13.486;2023-05-29T08:09:59;19.90;94.40
9305;DHT22;4690;52.422;13.486;2023-05-29T08:12:25;20.00;97.10
9305;DHT22;4690;52.422;13.486;2023-05-29T08:14:50;20.00;98.20
9305;DHT22;4690;52.422;13.486;2023-05-29T08:17:16;20.20;94.90
9305;DHT22;4690;52.422;13.486;2023-05-29T08:19:42;20.20;95.70
9305;DHT22;4690;52.422;13.486;2023-05-29T08:22:11;20.10;95.10
9305;DHT22;4690;52.422;13.486;2023-05-29T08:24:38;20.40;97.80
9305;DHT22;4690;52.422;13.486;2023-05-29T08:27:04;20.60;96.10
9305;DHT22;4690;52.422;13.486;2023-05-29T08:29:29;20.60;96.10
9305;DHT22;4690;52.422;13.486;2023-05-29T08:31:56;20.50;95.70
9305;DHT22;4690;52.422;13.486;2023-05-29T08:34:22;20.00;95.70
9305;DHT22;4690;52.422;13.486;2023-05-29T08:36:47;19.80;95.50
9305;DHT22;4690;52.422;13.486;2023-05-29T08:39:14;19.80;96.90
9305;DHT22;4690;52.422;13.486;2023-05-29T08:41:59;20.00;95.70
9305;DHT22;4690;52.422;13.486;2023-05-29T08:44:31;20.50;99.00
9305;DHT22;4690;52.422;13.486;2023-05-29T08:47:03;20.80;96.70
9305;DHT22;4690;52.422;13.486;2023-05-29T08:49:40;20.90;94.50
9305;DHT22;4690;52.422;13.486;2023-05-29T08:52:18;20.90;94.10
9305;DHT22;4690;52.422;13.486;2023-05-29T08:54:46;21.00;93.80
9305;DHT22;4690;52.422;13.486;2023-05-29T08:57:12;20.70;94.80
9305;DHT22;4690;52.422;13.486;2023-05-29T08:59:41;20.50;95.10
9305;DHT22;4690;52.422;13.486;2023-05-29T09:02:10;20.50;94.20
9305;DHT22;4690;52.422;13.486;2023-05-29T09:04:37;20.80;96.70
9305;DHT22;4690;52.422;13.486;2023-05-29T09:07:04;21.00;97.40
9305;DHT22;4690;52.422;13.486;2023-05-29T09:09:34;21.10;95.20
9305;DHT22;4690;52.422;13.486;2023-05-29T09:12:01;21.30;97.30
9305;DHT22;4690;52.422;13.486;2023-05-29T09:14:39;21.60;97.30
9305;DHT22;4690;52.422;13.486;2023-05-29T09:17:07;21.90;95.20
9305;DHT22;4690;52.422;13.486;2023-05-29T09:19:34;21.70;94.80
9305;DHT22;4690;52.422;13.486;2023-05-29T09:22:09;22.00;95.60
9305;DHT22;4690;52.422;13.486;2023-05-29T09:24:37;22.20;97.90
9305;DHT22;4690;52.422;13.486;2023-05-29T09:27:06;22.50;95.50
9305;DHT22;4690;52.422;13.486;2023-05-29T09:29:38;22.50;94.80
9305;DHT22;4690;52.422;13.486;2023-05-29T09:32:07;22.40;94.00
9305;DHT22;4690;52.422;13.486;2023-05-29T09:34:34;22.60;95.20
9305;DHT22;4690;52.422;13.486;2023-05-29T09:37:05;22.60;94.20
9305;DHT22;4690;52.422;13.486;2023-05-29T09:39:45;22.30;94.60
9305;DHT22;4690;52.422;13.486;2023-05-29T09:42:15;22.30;92.10
9305;DHT22;4690;52.422;13.486;2023-05-29T09:44:50;21.90;91.80
9305;DHT22;4690;52.422;13.486;2023-05-29T09:47:18;22.10;94.60
9305;DHT22;4690;52.422;13.486;2023-05-29T09:49:45;21.80;94.00
9305;DHT22;4690;52.422;13.486;2023-05-29T09:52:15;21.80;95.30
9305;DHT22;4690;52.422;13.486;2023-05-29T09:54:46;21.80;94.50
9305;DHT22;4690;52.422;13.486;2023-05-29T09:57:13;22.00;95.40
9305;DHT22;4690;52.422;13.486;2023-05-29T09:59:46;21.90;94.00
9305;DHT22;4690;52.422;13.486;2023-05-29T10:02:17;22.30;95.00
9305;DHT22;4690;52.422;13.486;2023-05-29T10:04:44;22.50;94.20
9305;DHT22;4690;52.422;13.486;2023-05-29T10:07:20;22.60;95.10
9305;DHT22;4690;52.422;13.486;2023-05-29T10:09:54;22.80;92.70
9305;DHT22;4690;52.422;13.486;2023-05-29T10:12:27;23.00;95.90
9305;DHT22;4690;52.422;13.486;2023-05-29T10:14:57;22.90;93.70
9305;DHT22;4690;52.422;13.486;2023-05-29T10:17:28;23.00;93.60
9305;DHT22;4690;52.422;13.486;2023-05-29T10:20:01;23.20;94.40
9305;DHT22;4690;52.422;13.486;2023-05-29T10:22:31;23.20;95.20
9305;DHT22;4690;52.422;13.486;2023-05-29T10:24:59;23.30;93.40
9305;DHT22;4690;52.422;13.486;2023-05-29T10:27:26;23.10;92.50
9305;DHT22;4690;52.422;13.486;2023-05-29T10:30:01;22.80;93.20
9305;DHT22;4690;52.422;13.486;2023-05-29T10:32:36;22.80;92.90
9305;DHT22;4690;52.422;13.486;2023-05-29T10:35:20;23.00;94.70
9305;DHT22;4690;52.422;13.486;2023-05-29T10:37:57;23.20;92.00
9305;DHT22;4690;52.422;13.486;2023-05-29T10:40:34;23.30;90.90
9305;DHT22;4690;52.422;13.486;2023-05-29T10:43:00;23.20;92.10
9305;DHT22;4690;52.422;13.486;2023-05-29T10:51:02;22.40;93.20
9305;DHT22;4690;52.422;13.486;2023-05-29T10:53:32;22.00;92.60
9305;DHT22;4690;52.422;13.486;2023-05-29T10:56:01;22.00;92.20
9305;DHT22;4690;52.422;13.486;2023-05-29T10:58:27;22.50;94.20
9305;DHT22;4690;52.422;13.486;2023-05-29T11:00:55;22.40;92.20
9305;DHT22;4690;52.422;13.486;2023-05-29T11:03:30;22.20;94.00
9305;DHT22;4690;52.422;13.486;2023-05-29T11:11:12;22.20;92.30
9305;DHT22;4690;52.422;13.486;2023-05-29T11:14:00;22.30;93.20
9305;DHT22;4690;52.422;13.486;2023-05-29T11:19:06;22.10;94.90
9305;DHT22;4690;52.422;13.486;2023-05-29T11:22:05;22.20;90.90
9305;DHT22;4690;52.422;13.486;2023-05-29T11:24:35;22.50;92.30
9305;DHT22;4690;52.422;13.486;2023-05-29T11:27:05;22.60;91.30
9305;DHT22;4690;52.422;13.486;2023-05-29T11:29:33;22.50;92.10
9305;DHT22;4690;52.422;13.486;2023-05-29T11:32:01;22.10;90.00
9305;DHT22;4690;52.422;13.486;2023-05-29T11:34:29;21.80;91.00
9305;DHT22;4690;52.422;13.486;2023-05-29T11:37:00;21.70;92.30
9305;DHT22;4690;52.422;13.486;2023-05-29T11:39:26;21.60;90.40
9305;DHT22;4690;52.422;13.486;2023-05-29T11:41:54;21.50;90.40
9305;DHT22;4690;52.422;13.486;2023-05-29T11:44:26;21.50;91.30
9305;DHT22;4690;52.422;13.486;2023-05-29T11:47:05;21.90;92.30
9305;DHT22;4690;52.422;13.486;2023-05-29T11:49:34;22.40;92.00
9305;DHT22;4690;52.422;13.486;2023-05-29T11:52:13;22.60;91.20
9305;DHT22;4690;52.422;13.486;2023-05-29T11:54:40;22.50;88.60
9305;DHT22;4690;52.422;13.486;2023-05-29T11:57:20;22.70;89.80
9305;DHT22;4690;52.422;13.486;2023-05-29T11:59:47;22.80;89.90
9305;DHT22;4690;52.422;13.486;2023-05-29T12:02:14;23.10;90.80
9305;DHT22;4690;52.422;13.486;2023-05-29T12:04:40;23.30;90.70
9305;DHT22;4690;52.422;13.486;2023-05-29T12:07:24;23.50;90.10
9305;DHT22;4690;52.422;13.486;2023-05-29T12:09:53;23.50;89.40
9305;DHT22;4690;52.422;13.486;2023-05-29T12:12:23;23.50;89.90
9305;DHT22;4690;52.422;13.486;2023-05-29T12:14:52;23.70;88.60
9305;DHT22;4690;52.422;13.486;2023-05-29T12:17:19;23.80;86.50
9305;DHT22;4690;52.422;13.486;2023-05-29T12:19:46;23.80;90.50
9305;DHT22;4690;52.422;13.486;2023-05-29T12:22:12;23.70;90.90
9305;DHT22;4690;52.422;13.486;2023-05-29T12:24:38;23.40;89.60
9305;DHT22;4690;52.422;13.486;2023-05-29T12:27:04;22.90;87.80
9305;DHT22;4690;52.422;13.486;2023-05-29T12:29:36;22.40;88.70
9305;DHT22;4690;52.422;13.486;2023-05-29T12:32:02;22.30;90.30
9305;DHT22;4690;52.422;13.486;2023-05-29T12:34:34;22.20;92.40
9305;DHT22;4690;52.422;13.486;2023-05-29T12:37:09;22.30;92.70
9305;DHT22;4690;52.422;13.486;2023-05-29T12:39:39;22.60;91.00
9305;DHT22;4690;52.422;13.486;2023-05-29T12:42:06;22.90;87.80
9305;DHT22;4690;52.422;13.486;2023-05-29T12:44:33;23.10;90.10
9305;DHT22;4690;52.422;13.486;2023-05-29T12:46:59;23.10;88.40
9305;DHT22;4690;52.422;13.486;2023-05-29T12:49:24;23.30;90.60
9305;DHT22;4690;52.422;13.486;2023-05-29T12:51:51;23.50;91.10
9305;DHT22;4690;52.422;13.486;2023-05-29T12:54:18;23.40;91.60
9305;DHT22;4690;52.422;13.486;2023-05-29T12:56:44;23.30;89.00
9305;DHT22;4690;52.422;13.486;2023-05-29T12:59:11;23.20;90.50
9305;DHT22;4690;52.422;13.486;2023-05-29T13:01:37;23.50;90.30
9305;DHT22;4690;52.422;13.486;2023-05-29T13:04:05;23.40;90.00
9305;DHT22;4690;52.422;13.486;2023-05-29T13:06:38;23.50;91.40
9305;DHT22;4690;52.422;13.486;2023-05-29T13:09:04;23.30;87.60
9305;DHT22;4690;52.422;13.486;2023-05-29T13:11:33;22.70;90.10
9305;DHT22;4690;52.422;13.486;2023-05-29T13:13:59;22.80;92.40
9305;DHT22;4690;52.422;13.486;2023-05-29T13:16:25;22.90;90.30
9305;DHT22;4690;52.422;13.486;2023-05-29T13:18:51;23.00;91.00
9305;DHT22;4690;52.422;13.486;2023-05-29T13:21:16;23.30;92.00
9305;DHT22;4690;52.422;13.486;2023-05-29T13:23:42;23.40;89.70
9305;DHT22;4690;52.422;13.486;2023-05-29T13:26:08;23.50;90.40
9305;DHT22;4690;52.422;13.486;2023-05-29T13:28:34;23.60;90.30
9305;DHT22;4690;52.422;13.486;2023-05-29T13:31:00;23.60;85.70
9305;DHT22;4690;52.422;13.486;2023-05-29T13:33:25;23.60;91.40
9305;DHT22;4690;52.422;13.486;2023-05-29T13:35:51;23.60;87.30
9305;DHT22;4690;52.422;13.486;2023-05-29T13:38:17;23.30;85.20
9305;DHT22;4690;52.422;13.486;2023-05-29T13:40:43;23.00;90.80
9305;DHT22;4690;52.422;13.486;2023-05-29T13:43:08;22.90;88.90
9305;DHT22;4690;52.422;13.486;2023-05-29T13:45:34;22.90;88.70
9305;DHT22;4690;52.422;13.486;2023-05-29T13:48:00;23.10;88.70
9305;DHT22;4690;52.422;13.486;2023-05-29T13:50:26;23.30;90.10
9305;DHT22;4690;52.422;13.486;2023-05-29T13:52:52;23.30;88.00
9305;DHT22;4690;52.422;13.486;2023-05-29T13:55:18;23.30;86.80
9305;DHT22;4690;52.422;13.486;2023-05-29T13:57:44;23.20;86.10
9305;DHT22;4690;52.422;13.486;2023-05-29T14:00:11;23.30;87.90
9305;DHT22;4690;52.422;13.486;2023-05-29T14:02:37;23.30;86.90
9305;DHT22;4690;52.422;13.486;2023-05-29T14:05:03;23.20;84.90
9305;DHT22;4690;52.422;13.486;2023-05-29T14:07:31;23.10;89.30
9305;DHT22;4690;52.422;13.486;2023-05-29T14:09:57;23.00;87.50
9305;DHT22;4690;52.422;13.486;2023-05-29T14:12:23;23.00;83.70
9305;DHT22;4690;52.422;13.486;2023-05-29T14:14:49;22.90;88.60
9305;DHT22;4690;52.422;13.486;2023-05-29T14:17:14;22.90;84.80
9305;DHT22;4690;52.422;13.486;2023-05-29T14:19:40;23.00;84.10
9305;DHT22;4690;52.422;13.486;2023-05-29T14:22:07;23.10;84.90
9305;DHT22;4690;52.422;13.486;2023-05-29T14:24:33;23.00;86.70
9305;DHT22;4690;52.422;13.486;2023-05-29T14:27:01;23.10;89.20
9305;DHT22;4690;52.422;13.486;2023-05-29T14:29:27;23.00;84.10
9305;DHT22;4690;52.422;13.486;2023-05-29T14:31:53;23.00;88.00
9305;DHT22;4690;52.422;13.486;2023-05-29T14:34:19;22.90;87.30
9305;DHT22;4690;52.422;13.486;2023-05-29T14:36:44;23.10;86.70
9305;DHT22;4690;52.422;13.486;2023-05-29T14:39:10;23.20;89.00
9305;DHT22;4690;52.422;13.486;2023-05-29T14:41:38;23.20;84.40
9305;DHT22;4690;52.422;13.486;2023-05-29T14:44:04;23.10;87.40
9305;DHT22;4690;52.422;13.486;2023-05-29T14:46:29;22.80;84.00
9305;DHT22;4690;52.422;13.486;2023-05-29T14:49:00;22.80;85.00
9305;DHT22;4690;52.422;13.486;2023-05-29T14:51:27;22.60;85.70
9305;DHT22;4690;52.422;13.486;2023-05-29T14:53:53;22.80;88.70
9305;DHT22;4690;52.422;13.486;2023-05-29T14:56:19;22.70;86.40
9305;DHT22;4690;52.422;13.486;2023-05-29T14:58:46;22.90;86.50
9305;DHT22;4690;52.422;13.486;2023-05-29T15:01:16;22.70;88.20
9305;DHT22;4690;52.422;13.486;2023-05-29T15:03:42;22.50;86.00
9305;DHT22;4690;52.422;13.486;2023-05-29T15:06:09;22.50;86.20
9305;DHT22;4690;52.422;13.486;2023-05-29T15:08:40;22.60;85.30
9305;DHT22;4690;52.422;13.486;2023-05-29T15:11:07;22.70;83.40
9305;DHT22;4690;52.422;13.486;2023-05-29T15:13:34;22.70;85.70
9305;DHT22;4690;52.422;13.486;2023-05-29T15:16:01;22.70;85.90
9305;DHT22;4690;52.422;13.486;2023-05-29T15:18:28;22.80;83.90
9305;DHT22;4690;52.422;13.486;2023-05-29T15:20:58;22.60;82.70
9305;DHT22;4690;52.422;13.486;2023-05-29T15:23:25;22.60;85.70
9305;DHT22;4690;52.422;13.486;2023-05-29T15:25:51;22.60;87.60
9305;DHT22;4690;52.422;13.486;2023-05-29T15:28:17;22.60;86.10
9305;DHT22;4690;52.422;13.486;2023-05-29T15:30:44;22.50;85.00
9305;DHT22;4690;52.422;13.486;2023-05-29T15:33:10;22.50;83.60
9305;DHT22;4690;52.422;13.486;2023-05-29T15:35:37;22.40;87.60
9305;DHT22;4690;52.422;13.486;2023-05-29T15:38:03;22.50;89.10
9305;DHT22;4690;52.422;13.486;2023-05-29T15:40:29;22.50;88.50
9305;DHT22;4690;52.422;13.486;2023-05-29T15:42:55;22.50;86.80
9305;DHT22;4690;52.422;13.486;2023-05-29T15:45:21;22.60;85.80
9305;DHT22;4690;52.422;13.486;2023-05-29T15:47:49;22.60;87.60
9305;DHT22;4690;52.422;13.486;2023-05-29T15:50:15;22.50;86.00
9305;DHT22;4690;52.422;13.486;2023-05-29T15:52:42;22.40;84.80
9305;DHT22;4690;52.422;13.486;2023-05-29T15:55:07;22.40;86.50
9305;DHT22;4690;52.422;13.486;2023-05-29T15:57:33;22.50;86.40
9305;DHT22;4690;52.422;13.486;2023-05-29T15:59:59;22.50;86.20
9305;DHT22;4690;52.422;13.486;2023-05-29T16:02:25;22.50;84.10
9305;DHT22;4690;52.422;13.486;2023-05-29T16:04:51;22.40;84.30
9305;DHT22;4690;52.422;13.486;2023-05-29T16:07:16;22.40;87.70
9305;DHT22;4690;52.422;13.486;2023-05-29T16:09:42;22.60;88.40
9305;DHT22;4690;52.422;13.486;2023-05-29T16:12:09;22.50;88.00
9305;DHT22;4690;52.422;13.486;2023-05-29T16:14:36;22.60;85.50